Taipei Songshan Airport
RCSS : now visible

Aeroporto :











RITROVATECI SU...

 
LOGIN :

Iscrizione | Disclaimer

   EN    FR    IT 

 









Sommario :    VFR   VFR Marginale   IFR   IFR Intensivo   IFR Molto Intensivo
Visibilità : 
Base nubi : 
>= 8 km
>= 3000ft
5 / 8 km
1000 / 3000 ft
1500m / 5 km
500 / 1000 ft
800 / 1500m
200 / 500 ft
< 800m
< 200 ft
Simboli :   Temporali  Nebbia  Neve Forte  Precipitazioni Forti  Vento > 20 kt






- Altitudine del aeroporto : 18 ft
- Codice IATA : TSA


RCSS - Taipei Songshan

ULTIMO METAR :
  • 011200Z 09009KT 9999 FEW015 BKN025 BKN040 17/13 Q1020 NOSIG RMK A3012

METARs OBSOLETI :
  • 011130Z 09011KT 9999 FEW015 BKN028 BKN040 17/13 Q1019 NOSIG RMK A3010
  • 011100Z 08008KT 040V100 9999 FEW015 BKN028 BKN040 17/13 Q1019 NOSIG RMK A3009
  • 011030Z 07008KT 9999 FEW015 BKN028 BKN040 17/13 Q1019 NOSIG RMK A3009
  • 011000Z 08010KT 040V110 9999 FEW015 BKN025 BKN035 17/13 Q1018 NOSIG RMK A3008
  • 010930Z 08011KT 9999 FEW015 BKN025 BKN035 17/13 Q1018 NOSIG RMK A3007

TAF TAF RCSS
Valido dal 01 a 12 ore il 02 a 12 ore UTC


011100Z 0112/0212 09010KT 9999 FEW015 BKN032
TEMPO 0120/0124 08005KT FEW012 BKN022 BKN040



MetMap, La meteo Aeronautica in un colpo d'occhio ! - Copyright ORBIFLY Dicembre 2007 - Disclaimer

ORBIFLY MET'MAP TEAM :

Programmazione e sviluppo : Alexandra Zaïnal
Concezione : Baudouin d'Aumeries
Aiuto per la programmazione : Marc-Olivier Méhu
Supporto tecnico e logistico : Manuel Goepfert
Aiuto per la traduzione : Arnaldo La Scala

Contatto : metmap@orbifly.com




FONTI E CREDITI :

   NOAA       Earth
Advisory